Terminal Aerodrome Forecast
Issued by NWS Duluth, MN

Home | Current Version | Previous Version | Text Only | Print | Product List | Glossary On
Versions: 1 2 3 4 5 6 7 8 9 10 11 12 13 14
470
FTUS43 KDLH 301738
TAFDLH
TAF
KDLH 301738Z 3018/3118 17009KT P6SM SCT040 BKN070
     FM310100 07004KT P6SM SCT050
      TEMPO 3110/3112 4SM BR
     FM311300 15005KT P6SM BKN250=

USA.gov is the U.S. government's official web portal to all federal, state and local government web resources and services.